createdAt,value
2022-12-19T00:00:26.739Z,-2.43
2022-12-19T00:01:26.891Z,-2.42
2022-12-19T00:02:26.816Z,-2.42
2022-12-19T00:03:26.876Z,-2.41
2022-12-19T00:04:26.717Z,-2.41
2022-12-19T00:05:26.689Z,-2.40
2022-12-19T00:06:26.684Z,-2.40
2022-12-19T00:07:26.669Z,-2.40
2022-12-19T00:08:26.668Z,-2.39
2022-12-19T00:09:26.677Z,-2.39
2022-12-19T00:10:26.647Z,-2.38
2022-12-19T00:11:26.620Z,-2.38
2022-12-19T00:12:26.615Z,-2.37
2022-12-19T00:13:26.654Z,-2.37
2022-12-19T00:14:26.609Z,-2.36
2022-12-19T00:15:26.585Z,-2.36
2022-12-19T00:16:26.659Z,-2.35
2022-12-19T00:17:26.563Z,-2.34
2022-12-19T00:18:26.560Z,-2.33
2022-12-19T00:19:26.569Z,-2.32
2022-12-19T00:20:26.529Z,-2.32
2022-12-19T00:21:26.528Z,-2.31
2022-12-19T00:22:26.514Z,-2.31
2022-12-19T00:23:26.507Z,-2.30
2022-12-19T00:24:26.490Z,-2.29
2022-12-19T00:25:26.485Z,-2.29
2022-12-19T00:26:26.472Z,-2.28
2022-12-19T00:27:26.458Z,-2.27
2022-12-19T00:28:26.458Z,-2.26
2022-12-19T00:29:26.453Z,-2.25
2022-12-19T00:30:26.422Z,-2.25
2022-12-19T00:31:26.443Z,-2.24
2022-12-19T00:32:26.397Z,-2.24
2022-12-19T00:33:26.391Z,-2.24
2022-12-19T00:34:26.396Z,-2.23
2022-12-19T00:35:26.371Z,-2.23
2022-12-19T00:36:26.363Z,-2.22
2022-12-19T00:37:26.350Z,-2.22
2022-12-19T00:38:26.347Z,-2.21
2022-12-19T00:39:26.343Z,-2.20
2022-12-19T00:40:26.319Z,-2.20
2022-12-19T00:41:26.305Z,-2.19
2022-12-19T00:42:26.298Z,-2.18
2022-12-19T00:43:26.283Z,-2.16
2022-12-19T00:44:26.294Z,-2.15
2022-12-19T00:45:26.314Z,-2.14
2022-12-19T00:46:26.250Z,-2.13
2022-12-19T00:47:26.243Z,-2.12
2022-12-19T00:48:26.232Z,-2.11
2022-12-19T00:49:26.229Z,-2.10
2022-12-19T00:50:26.224Z,-2.10
2022-12-19T00:51:26.208Z,-2.09
2022-12-19T00:52:26.210Z,-2.08
2022-12-19T00:53:26.180Z,-2.07
2022-12-19T00:54:26.225Z,-2.07
2022-12-19T00:55:26.180Z,-2.06
2022-12-19T00:56:26.156Z,-2.06
2022-12-19T00:57:26.136Z,-2.06
2022-12-19T00:58:26.127Z,-2.06
2022-12-19T00:59:26.736Z,-2.06
2022-12-19T01:00:26.128Z,-2.07
2022-12-19T01:01:26.203Z,-2.07
2022-12-19T01:02:26.236Z,-2.07
2022-12-19T01:03:26.080Z,-2.08
2022-12-19T01:04:28.561Z,-2.07
2022-12-19T01:05:26.070Z,-2.07
2022-12-19T01:06:26.052Z,-2.06
2022-12-19T01:07:26.027Z,-2.05
2022-12-19T01:08:26.016Z,-2.04
2022-12-19T01:09:26.028Z,-2.03
2022-12-19T01:10:26.002Z,-2.02
2022-12-19T01:11:26.011Z,-2.01
2022-12-19T01:12:25.991Z,-2.00
2022-12-19T01:13:25.966Z,-1.99
2022-12-19T01:14:25.954Z,-1.98
2022-12-19T01:15:25.952Z,-1.97
2022-12-19T01:16:25.978Z,-1.95
2022-12-19T01:17:25.949Z,-1.93
2022-12-19T01:18:25.915Z,-1.92
2022-12-19T01:19:25.902Z,-1.90
2022-12-19T01:20:29.514Z,-1.88
2022-12-19T01:21:25.875Z,-1.87
2022-12-19T01:22:25.863Z,-1.86
2022-12-19T01:23:25.852Z,-1.85
2022-12-19T01:24:25.850Z,-1.85
2022-12-19T01:25:25.857Z,-1.84
2022-12-19T01:26:25.828Z,-1.85
2022-12-19T01:27:25.834Z,-1.84
2022-12-19T01:28:25.811Z,-1.84
2022-12-19T01:29:25.794Z,-1.84
2022-12-19T01:30:26.064Z,-1.83
2022-12-19T01:31:25.808Z,-1.83
2022-12-19T01:32:25.786Z,-1.82
2022-12-19T01:33:25.771Z,-1.80
2022-12-19T01:34:25.752Z,-1.79
2022-12-19T01:35:25.733Z,-1.77
2022-12-19T01:36:25.719Z,-1.76
2022-12-19T01:37:25.730Z,-1.75
2022-12-19T01:38:25.700Z,-1.75
2022-12-19T01:39:25.694Z,-1.75
2022-12-19T01:40:25.689Z,-1.75
2022-12-19T01:41:25.675Z,-1.75
2022-12-19T01:42:25.651Z,-1.74
2022-12-19T01:43:25.668Z,-1.73
2022-12-19T01:44:25.629Z,-1.72
2022-12-19T01:45:30.391Z,-1.71
2022-12-19T01:46:26.638Z,-1.69
2022-12-19T01:47:25.607Z,-1.67
2022-12-19T01:48:25.609Z,-1.66
2022-12-19T01:49:25.579Z,-1.64
2022-12-19T01:50:25.571Z,-1.63
2022-12-19T01:51:25.562Z,-1.61
2022-12-19T01:52:25.549Z,-1.59
2022-12-19T01:53:25.557Z,-1.57
2022-12-19T01:54:25.542Z,-1.55
2022-12-19T01:55:25.516Z,-1.52
2022-12-19T01:56:25.486Z,-1.50
2022-12-19T01:57:25.471Z,-1.48
2022-12-19T01:58:25.479Z,-1.45
2022-12-19T01:59:25.444Z,-1.42
2022-12-19T02:00:25.453Z,-1.39
2022-12-19T02:01:25.546Z,-1.37
2022-12-19T02:02:25.467Z,-1.35
2022-12-19T02:03:25.443Z,-1.34
2022-12-19T02:04:25.405Z,-1.33
2022-12-19T02:05:25.383Z,-1.32
2022-12-19T02:06:25.379Z,-1.31
2022-12-19T02:07:25.363Z,-1.30
2022-12-19T02:08:25.382Z,-1.30
2022-12-19T02:09:25.366Z,-1.30
2022-12-19T02:10:25.336Z,-1.30
2022-12-19T02:11:25.333Z,-1.31
2022-12-19T02:12:25.316Z,-1.31
2022-12-19T02:13:25.328Z,-1.31
2022-12-19T02:14:25.303Z,-1.31
2022-12-19T02:15:25.276Z,-1.31
2022-12-19T02:16:25.310Z,-1.30
2022-12-19T02:17:25.268Z,-1.30
2022-12-19T02:18:25.280Z,-1.29
2022-12-19T02:19:25.245Z,-1.29
2022-12-19T02:20:25.232Z,-1.28
2022-12-19T02:21:25.229Z,-1.27
2022-12-19T02:22:25.214Z,-1.26
2022-12-19T02:23:25.206Z,-1.26
2022-12-19T02:24:25.208Z,-1.25
2022-12-19T02:25:25.182Z,-1.23
2022-12-19T02:26:25.168Z,-1.23
2022-12-19T02:27:25.160Z,-1.22
2022-12-19T02:28:25.151Z,-1.21
2022-12-19T02:29:25.159Z,-1.21
2022-12-19T02:30:25.127Z,-1.20
2022-12-19T02:31:25.150Z,-1.19
2022-12-19T02:32:25.105Z,-1.18
2022-12-19T02:33:25.110Z,-1.17
2022-12-19T02:34:25.107Z,-1.16
2022-12-19T02:35:25.089Z,-1.14
2022-12-19T02:36:25.071Z,-1.13
2022-12-19T02:37:25.053Z,-1.12
2022-12-19T02:38:25.053Z,-1.11
2022-12-19T02:39:25.064Z,-1.09
2022-12-19T02:40:25.054Z,-1.08
2022-12-19T02:41:25.016Z,-1.07
2022-12-19T02:42:25.025Z,-1.05
2022-12-19T02:43:24.995Z,-1.05
2022-12-19T02:44:24.985Z,-1.04
2022-12-19T02:45:28.583Z,-1.03
2022-12-19T02:46:25.006Z,-1.02
2022-12-19T02:47:24.957Z,-1.02
2022-12-19T02:48:24.951Z,-1.02
2022-12-19T02:49:30.711Z,-1.01
2022-12-19T02:50:25.956Z,-0.99
2022-12-19T02:51:24.940Z,-0.98
2022-12-19T02:52:24.914Z,-0.96
2022-12-19T02:53:24.925Z,-0.93
2022-12-19T02:54:24.915Z,-0.91
2022-12-19T02:55:24.883Z,-0.89
2022-12-19T02:56:24.879Z,-0.87
2022-12-19T02:57:24.881Z,-0.86
2022-12-19T02:58:24.849Z,-0.85
2022-12-19T02:59:24.832Z,-0.84
2022-12-19T03:00:24.845Z,-0.83
2022-12-19T03:01:24.923Z,-0.82
2022-12-19T03:02:24.926Z,-0.81
2022-12-19T03:03:24.873Z,-0.81
2022-12-19T03:04:24.810Z,-0.80
2022-12-19T03:05:24.794Z,-0.80
2022-12-19T03:06:24.791Z,-0.80
2022-12-19T03:07:24.751Z,-0.79
2022-12-19T03:08:24.749Z,-0.78
2022-12-19T03:09:24.743Z,-0.75
2022-12-19T03:10:24.783Z,-0.72
2022-12-19T03:11:24.722Z,-0.69
2022-12-19T03:12:24.759Z,-0.67
2022-12-19T03:13:24.692Z,-0.64
2022-12-19T03:14:24.684Z,-0.61
2022-12-19T03:15:24.704Z,-0.59
2022-12-19T03:16:24.699Z,-0.57
2022-12-19T03:17:24.736Z,-0.56
2022-12-19T03:18:24.640Z,-0.55
2022-12-19T03:19:24.642Z,-0.55
2022-12-19T03:20:24.695Z,-0.54
2022-12-19T03:21:24.611Z,-0.54
2022-12-19T03:22:31.642Z,-0.52
2022-12-19T03:23:24.594Z,-0.51
2022-12-19T03:24:24.573Z,-0.50
2022-12-19T03:25:24.591Z,-0.49
2022-12-19T03:26:24.572Z,-0.48
2022-12-19T03:27:24.556Z,-0.47
2022-12-19T03:28:24.551Z,-0.46
2022-12-19T03:29:24.554Z,-0.45
2022-12-19T03:30:24.522Z,-0.43
2022-12-19T03:31:24.564Z,-0.42
2022-12-19T03:32:24.524Z,-0.42
2022-12-19T03:33:24.494Z,-0.41
2022-12-19T03:34:24.498Z,-0.41
2022-12-19T03:35:24.479Z,-0.40
2022-12-19T03:36:24.494Z,-0.40
2022-12-19T03:37:24.478Z,-0.39
2022-12-19T03:38:24.447Z,-0.39
2022-12-19T03:39:24.457Z,-0.38
2022-12-19T03:40:24.435Z,-0.37
2022-12-19T03:41:24.405Z,-0.36
2022-12-19T03:42:24.406Z,-0.35
2022-12-19T03:43:24.396Z,-0.34
2022-12-19T03:44:24.401Z,-0.33
2022-12-19T03:45:24.366Z,-0.31
2022-12-19T03:46:24.377Z,-0.30
2022-12-19T03:47:24.350Z,-0.29
2022-12-19T03:48:24.348Z,-0.27
2022-12-19T03:49:24.336Z,-0.26
2022-12-19T03:50:24.308Z,-0.24
2022-12-19T03:51:24.324Z,-0.23
2022-12-19T03:52:24.318Z,-0.21
2022-12-19T03:53:24.287Z,-0.20
2022-12-19T03:54:24.268Z,-0.19
2022-12-19T03:55:24.270Z,-0.18
2022-12-19T03:56:24.248Z,-0.17
2022-12-19T03:57:24.256Z,-0.16
2022-12-19T03:58:24.253Z,-0.16
2022-12-19T03:59:24.240Z,-0.15
2022-12-19T04:00:24.210Z,-0.15
2022-12-19T04:01:24.292Z,-0.14
2022-12-19T04:02:24.358Z,-0.14
2022-12-19T04:03:24.209Z,-0.14
2022-12-19T04:04:24.203Z,-0.15
2022-12-19T04:05:24.173Z,-0.15
2022-12-19T04:06:24.163Z,-0.15
2022-12-19T04:07:24.131Z,-0.14
2022-12-19T04:08:24.170Z,-0.14
2022-12-19T04:09:24.140Z,-0.14
2022-12-19T04:10:24.098Z,-0.15
2022-12-19T04:11:24.093Z,-0.15
2022-12-19T04:12:24.116Z,-0.16
2022-12-19T04:13:24.110Z,-0.16
2022-12-19T04:14:24.098Z,-0.17
2022-12-19T04:15:24.047Z,-0.18
2022-12-19T04:16:24.058Z,-0.18
2022-12-19T04:17:24.032Z,-0.19
2022-12-19T04:18:24.056Z,-0.19
2022-12-19T04:19:24.034Z,-0.19
2022-12-19T04:20:24.008Z,-0.19
2022-12-19T04:21:23.986Z,-0.19
2022-12-19T04:22:23.985Z,-0.19
2022-12-19T04:23:23.986Z,-0.19
2022-12-19T04:24:23.964Z,-0.18
2022-12-19T04:25:29.041Z,-0.18
2022-12-19T04:26:24.937Z,-0.18
2022-12-19T04:27:23.929Z,-0.18
2022-12-19T04:28:23.922Z,-0.18
2022-12-19T04:29:23.919Z,-0.18
2022-12-19T04:30:23.904Z,-0.19
2022-12-19T04:31:23.965Z,-0.18
2022-12-19T04:32:23.867Z,-0.19
2022-12-19T04:33:23.881Z,-0.18
2022-12-19T04:34:23.856Z,-0.19
2022-12-19T04:35:23.856Z,-0.19
2022-12-19T04:36:23.823Z,-0.19
2022-12-19T04:37:23.816Z,-0.19
2022-12-19T04:38:23.802Z,-0.19
2022-12-19T04:39:23.806Z,-0.19
2022-12-19T04:40:23.797Z,-0.19
2022-12-19T04:41:23.831Z,-0.19
2022-12-19T04:42:23.778Z,-0.19
2022-12-19T04:43:23.761Z,-0.19
2022-12-19T04:44:23.760Z,-0.19
2022-12-19T04:45:23.741Z,-0.18
2022-12-19T04:46:23.816Z,-0.18
2022-12-19T04:47:23.748Z,-0.18
2022-12-19T04:48:23.758Z,-0.18
2022-12-19T04:49:23.725Z,-0.18
2022-12-19T04:50:23.676Z,-0.18
2022-12-19T04:51:23.667Z,-0.18
2022-12-19T04:52:23.695Z,-0.18
2022-12-19T04:53:23.684Z,-0.18
2022-12-19T04:54:23.659Z,-0.18
2022-12-19T04:55:23.624Z,-0.18
2022-12-19T04:56:23.679Z,-0.18
2022-12-19T04:57:23.607Z,-0.18
2022-12-19T04:58:23.618Z,-0.18
2022-12-19T04:59:23.609Z,-0.18
2022-12-19T05:00:23.577Z,-0.18
2022-12-19T05:01:23.693Z,-0.18
2022-12-19T05:02:23.771Z,-0.18
2022-12-19T05:03:23.607Z,-0.18
2022-12-19T05:04:23.607Z,-0.18
2022-12-19T05:05:23.570Z,-0.18
2022-12-19T05:06:23.513Z,-0.18
2022-12-19T05:07:23.528Z,-0.17
2022-12-19T05:08:23.493Z,-0.17
2022-12-19T05:09:23.533Z,-0.16
2022-12-19T05:10:23.589Z,-0.16
2022-12-19T05:11:23.484Z,-0.15
2022-12-19T05:12:23.503Z,-0.15
2022-12-19T05:13:23.435Z,-0.14
2022-12-19T05:14:23.501Z,-0.13
2022-12-19T05:15:23.466Z,-0.12
2022-12-19T05:16:23.484Z,-0.10
2022-12-19T05:17:23.594Z,-0.09
2022-12-19T05:18:23.395Z,-0.08
2022-12-19T05:19:23.419Z,-0.07
2022-12-19T05:20:23.382Z,-0.06
2022-12-19T05:21:23.400Z,-0.05
2022-12-19T05:22:23.337Z,-0.03
2022-12-19T05:23:23.329Z,-0.02
2022-12-19T05:24:23.314Z,-0.00
2022-12-19T05:25:23.340Z,0.01
2022-12-19T05:26:23.337Z,0.02
2022-12-19T05:27:23.315Z,0.03
2022-12-19T05:28:23.276Z,0.04
2022-12-19T05:29:23.264Z,0.05
2022-12-19T05:30:23.282Z,0.05
2022-12-19T05:31:23.348Z,0.05
2022-12-19T05:32:23.439Z,0.06
2022-12-19T05:33:23.465Z,0.06
2022-12-19T05:34:23.234Z,0.06
2022-12-19T05:35:23.217Z,0.07
2022-12-19T05:36:26.471Z,0.07
2022-12-19T05:37:24.179Z,0.07
2022-12-19T05:38:23.160Z,0.07
2022-12-19T05:39:23.192Z,0.07
2022-12-19T05:40:23.184Z,0.07
2022-12-19T05:41:23.215Z,0.07
2022-12-19T05:42:23.138Z,0.07
2022-12-19T05:43:23.110Z,0.07
2022-12-19T05:44:23.114Z,0.07
2022-12-19T05:45:23.100Z,0.07
2022-12-19T05:46:24.242Z,0.07
2022-12-19T05:47:23.079Z,0.07
2022-12-19T05:48:23.065Z,0.07
2022-12-19T05:49:23.040Z,0.07
2022-12-19T05:50:23.033Z,0.08
2022-12-19T05:51:23.050Z,0.08
2022-12-19T05:52:23.830Z,0.09
2022-12-19T05:53:26.097Z,0.10
2022-12-19T05:54:23.691Z,0.11
2022-12-19T05:55:24.131Z,0.12
2022-12-19T05:56:23.288Z,0.12
2022-12-19T05:57:22.957Z,0.11
2022-12-19T05:58:22.966Z,0.10
2022-12-19T05:59:22.966Z,0.10
2022-12-19T06:00:22.942Z,0.10
2022-12-19T06:01:23.044Z,0.10
2022-12-19T06:02:23.053Z,0.11
2022-12-19T06:03:23.795Z,0.12
2022-12-19T06:04:22.918Z,0.15
2022-12-19T06:05:22.945Z,0.18
2022-12-19T06:06:22.887Z,0.22
2022-12-19T06:07:24.067Z,0.25
2022-12-19T06:08:22.857Z,0.28
2022-12-19T06:09:22.834Z,0.30
2022-12-19T06:10:23.003Z,0.33
2022-12-19T06:11:23.822Z,0.34
2022-12-19T06:12:23.276Z,0.36
2022-12-19T06:13:25.104Z,0.37
2022-12-19T06:14:23.698Z,0.39
2022-12-19T06:15:22.782Z,0.40
2022-12-19T06:16:22.839Z,0.42
2022-12-19T06:17:23.381Z,0.42
2022-12-19T06:18:23.596Z,0.43
2022-12-19T06:19:23.586Z,0.45
2022-12-19T06:20:23.538Z,0.45
2022-12-19T06:21:22.884Z,0.46
2022-12-19T06:22:22.940Z,0.47
2022-12-19T06:23:23.319Z,0.47
2022-12-19T06:24:23.451Z,0.47
2022-12-19T06:25:23.608Z,0.47
2022-12-19T06:26:22.656Z,0.47
2022-12-19T06:27:22.660Z,0.47
2022-12-19T06:28:22.630Z,0.47
2022-12-19T06:29:22.624Z,0.47
2022-12-19T06:30:22.614Z,0.46
2022-12-19T06:31:22.662Z,0.46
2022-12-19T06:32:22.603Z,0.47
2022-12-19T06:33:22.616Z,0.47
2022-12-19T06:34:55.106Z,0.47
2022-12-19T06:35:23.551Z,0.46
2022-12-19T06:36:22.547Z,0.45
2022-12-19T06:37:22.557Z,0.44
2022-12-19T06:38:22.527Z,0.44
2022-12-19T06:39:22.512Z,0.43
2022-12-19T06:40:22.509Z,0.42
2022-12-19T06:41:22.502Z,0.41
2022-12-19T06:42:22.530Z,0.41
2022-12-19T06:43:22.500Z,0.41
2022-12-19T06:44:22.478Z,0.41
2022-12-19T06:45:22.524Z,0.41
2022-12-19T06:46:22.460Z,0.42
2022-12-19T06:47:22.445Z,0.42
2022-12-19T06:48:22.445Z,0.43
2022-12-19T06:49:22.401Z,0.44
2022-12-19T06:50:22.409Z,0.44
2022-12-19T06:51:22.393Z,0.44
2022-12-19T06:52:22.486Z,0.45
2022-12-19T06:53:22.380Z,0.45
2022-12-19T06:54:22.360Z,0.45
2022-12-19T06:55:22.347Z,0.45
2022-12-19T06:56:22.332Z,0.45
2022-12-19T06:57:22.322Z,0.44
2022-12-19T06:58:24.406Z,0.44
2022-12-19T06:59:22.319Z,0.44
2022-12-19T07:00:22.316Z,0.44
2022-12-19T07:01:22.467Z,0.44
2022-12-19T07:02:22.342Z,0.44
2022-12-19T07:03:22.348Z,0.45
2022-12-19T07:04:22.243Z,0.45
2022-12-19T07:05:22.269Z,0.46
2022-12-19T07:06:22.226Z,0.47
2022-12-19T07:07:22.227Z,0.47
2022-12-19T07:08:22.230Z,0.48
2022-12-19T07:09:22.254Z,0.49
2022-12-19T07:10:22.223Z,0.50
2022-12-19T07:11:22.219Z,0.51
2022-12-19T07:12:22.211Z,0.52
2022-12-19T07:13:22.176Z,0.52
2022-12-19T07:14:22.151Z,0.52
2022-12-19T07:15:22.128Z,0.53
2022-12-19T07:16:22.177Z,0.53
2022-12-19T07:17:22.156Z,0.53
2022-12-19T07:18:22.135Z,0.53
2022-12-19T07:19:22.262Z,0.54
2022-12-19T07:20:22.086Z,0.55
2022-12-19T07:21:22.098Z,0.55
2022-12-19T07:22:22.059Z,0.55
2022-12-19T07:23:22.050Z,0.55
2022-12-19T07:24:22.049Z,0.55
2022-12-19T07:25:22.045Z,0.55
2022-12-19T07:26:22.016Z,0.55
2022-12-19T07:27:22.003Z,0.55
2022-12-19T07:28:22.000Z,0.55
2022-12-19T07:29:22.018Z,0.54
2022-12-19T07:30:21.982Z,0.54
2022-12-19T07:31:22.021Z,0.54
2022-12-19T07:32:21.976Z,0.53
2022-12-19T07:33:22.333Z,0.53
2022-12-19T07:34:22.156Z,0.52
2022-12-19T07:35:21.955Z,0.51
2022-12-19T07:36:21.908Z,0.51
2022-12-19T07:37:21.937Z,0.50
2022-12-19T07:38:21.938Z,0.49
2022-12-19T07:39:21.931Z,0.47
2022-12-19T07:40:21.876Z,0.46
2022-12-19T07:41:21.873Z,0.44
2022-12-19T07:42:21.859Z,0.43
2022-12-19T07:43:21.971Z,0.42
2022-12-19T07:44:21.852Z,0.40
2022-12-19T07:45:21.822Z,0.39
2022-12-19T07:46:21.902Z,0.38
2022-12-19T07:47:21.787Z,0.38
2022-12-19T07:48:21.787Z,0.37
2022-12-19T07:49:22.956Z,0.37
2022-12-19T07:50:21.768Z,0.36
2022-12-19T07:51:21.758Z,0.36
2022-12-19T07:52:21.743Z,0.35
2022-12-19T07:53:21.755Z,0.35
2022-12-19T07:54:21.738Z,0.34
2022-12-19T07:55:21.704Z,0.34
2022-12-19T07:56:21.717Z,0.33
2022-12-19T07:57:21.686Z,0.33
2022-12-19T07:58:21.680Z,0.33
2022-12-19T07:59:27.321Z,0.34
2022-12-19T08:00:22.653Z,0.35
2022-12-19T08:01:21.779Z,0.35
2022-12-19T08:02:21.730Z,0.36
2022-12-19T08:03:21.652Z,0.36
2022-12-19T08:04:21.604Z,0.36
2022-12-19T08:05:22.036Z,0.36
2022-12-19T08:06:21.602Z,0.36
2022-12-19T08:07:21.579Z,0.35
2022-12-19T08:08:21.596Z,0.35
2022-12-19T08:09:21.549Z,0.35
2022-12-19T08:10:21.551Z,0.35
2022-12-19T08:11:21.556Z,0.36
2022-12-19T08:12:21.532Z,0.36
2022-12-19T08:13:21.507Z,0.37
2022-12-19T08:14:21.507Z,0.37
2022-12-19T08:15:21.503Z,0.37
2022-12-19T08:16:21.541Z,0.38
2022-12-19T08:17:21.816Z,0.38
2022-12-19T08:18:21.455Z,0.39
2022-12-19T08:19:25.903Z,0.39
2022-12-19T08:20:22.442Z,0.39
2022-12-19T08:21:21.438Z,0.39
2022-12-19T08:22:21.437Z,0.39
2022-12-19T08:23:21.421Z,0.39
2022-12-19T08:24:21.389Z,0.38
2022-12-19T08:25:21.405Z,0.38
2022-12-19T08:26:21.367Z,0.37
2022-12-19T08:27:21.363Z,0.37
2022-12-19T08:28:21.386Z,0.37
2022-12-19T08:29:21.342Z,0.37
2022-12-19T08:30:21.350Z,0.37
2022-12-19T08:31:21.371Z,0.38
2022-12-19T08:32:21.903Z,0.38
2022-12-19T08:33:21.299Z,0.38
2022-12-19T08:34:21.333Z,0.37
2022-12-19T08:35:21.286Z,0.37
2022-12-19T08:36:21.268Z,0.38
2022-12-19T08:37:21.250Z,0.38
2022-12-19T08:38:21.275Z,0.39
2022-12-19T08:39:21.245Z,0.39
2022-12-19T08:40:21.229Z,0.40
2022-12-19T08:41:21.213Z,0.40
2022-12-19T08:42:21.209Z,0.41
2022-12-19T08:43:21.205Z,0.42
2022-12-19T08:44:21.228Z,0.43
2022-12-19T08:45:21.224Z,0.44
2022-12-19T08:46:21.309Z,0.46
2022-12-19T08:47:21.155Z,0.47
2022-12-19T08:48:21.146Z,0.48
2022-12-19T08:49:21.152Z,0.49
2022-12-19T08:50:21.132Z,0.50
2022-12-19T08:51:21.120Z,0.51
2022-12-19T08:52:21.097Z,0.52
2022-12-19T08:53:25.982Z,0.54
2022-12-19T08:54:22.101Z,0.55
2022-12-19T08:55:21.117Z,0.57
2022-12-19T08:56:21.055Z,0.57
2022-12-19T08:57:21.071Z,0.58
2022-12-19T08:58:21.039Z,0.59
2022-12-19T08:59:30.414Z,0.60
2022-12-19T09:00:22.019Z,0.60
2022-12-19T09:01:21.230Z,0.61
2022-12-19T09:02:21.154Z,0.62
2022-12-19T09:03:21.197Z,0.62
2022-12-19T09:05:51.242Z,0.63
2022-12-19T09:05:58.358Z,0.63
2022-12-19T09:06:22.030Z,0.64
2022-12-19T09:07:20.995Z,0.65
2022-12-19T09:08:20.970Z,0.65
2022-12-19T09:09:29.673Z,0.66
2022-12-19T09:10:20.949Z,0.66
2022-12-19T09:11:20.915Z,0.67
2022-12-19T09:12:20.902Z,0.67
2022-12-19T09:13:20.915Z,0.68
2022-12-19T09:14:21.675Z,0.68
2022-12-19T09:15:20.871Z,0.68
2022-12-19T09:16:20.944Z,0.69
2022-12-19T09:17:20.918Z,0.69
2022-12-19T09:18:20.874Z,0.70
2022-12-19T09:19:20.820Z,0.71
2022-12-19T09:20:23.354Z,0.72
2022-12-19T09:21:20.798Z,0.73
2022-12-19T09:22:20.793Z,0.74
2022-12-19T09:24:32.769Z,1.86
2022-12-19T09:25:32.767Z,1.43
2022-12-19T09:26:32.926Z,1.14
2022-12-19T09:27:42.490Z,0.99
2022-12-19T09:28:33.729Z,0.90
2022-12-19T09:29:35.506Z,0.86
2022-12-19T09:30:32.791Z,0.84
2022-12-19T09:31:32.756Z,0.83
2022-12-19T09:32:32.730Z,0.82
2022-12-19T09:33:35.501Z,0.82
2022-12-19T09:34:37.644Z,0.83
2022-12-19T09:35:33.687Z,0.83
2022-12-19T09:36:32.650Z,0.83
2022-12-19T09:37:32.641Z,0.83
2022-12-19T09:38:32.645Z,0.84
2022-12-19T09:39:33.688Z,0.85
2022-12-19T09:40:32.674Z,0.86
2022-12-19T09:41:32.595Z,0.88
2022-12-19T09:42:32.578Z,0.89
2022-12-19T09:43:39.625Z,0.90
2022-12-19T09:44:33.583Z,0.91
2022-12-19T09:45:33.117Z,0.91
2022-12-19T09:46:32.587Z,0.93
2022-12-19T09:47:32.549Z,0.94
2022-12-19T09:48:32.593Z,0.94
2022-12-19T09:49:32.509Z,0.95
2022-12-19T09:50:32.560Z,0.95
2022-12-19T09:51:32.506Z,0.96
2022-12-19T09:52:33.122Z,0.96
2022-12-19T09:53:32.471Z,0.96
2022-12-19T09:54:32.451Z,0.96
2022-12-19T09:55:32.468Z,0.96
2022-12-19T09:56:34.020Z,0.97
2022-12-19T09:57:33.449Z,0.97
2022-12-19T09:58:32.442Z,0.98
2022-12-19T09:59:41.562Z,0.99
2022-12-19T10:00:33.414Z,0.99
2022-12-19T10:01:32.594Z,0.98
2022-12-19T10:02:32.597Z,0.98
2022-12-19T10:03:39.803Z,0.98
2022-12-19T10:04:33.356Z,0.99
2022-12-19T10:06:37.189Z,1.00
2022-12-19T10:07:07.940Z,1.01
2022-12-19T10:07:53.337Z,1.02
2022-12-19T10:08:33.322Z,1.03
2022-12-19T10:10:34.055Z,1.05
2022-12-19T10:12:38.001Z,1.05
2022-12-19T10:12:42.259Z,1.06
2022-12-19T10:12:44.271Z,1.07
2022-12-19T10:13:33.328Z,1.08
2022-12-19T10:14:32.245Z,1.08
2022-12-19T10:15:32.271Z,1.09
2022-12-19T10:16:32.273Z,1.10
2022-12-19T10:17:32.223Z,1.11
2022-12-19T10:18:32.237Z,1.11
2022-12-19T10:19:32.185Z,1.12
2022-12-19T10:20:32.208Z,1.13
2022-12-19T10:22:07.653Z,1.14
2022-12-19T10:22:33.164Z,1.16
2022-12-19T10:23:32.140Z,1.17
2022-12-19T10:24:35.201Z,1.18
2022-12-19T10:25:32.162Z,1.19
2022-12-19T10:26:32.114Z,1.20
2022-12-19T10:27:32.113Z,1.21
2022-12-19T10:28:32.090Z,1.22
2022-12-19T10:29:32.078Z,1.23
2022-12-19T10:30:32.373Z,1.24
2022-12-19T10:31:32.080Z,1.25
2022-12-19T10:32:32.048Z,1.26
2022-12-19T10:33:32.037Z,1.27
2022-12-19T10:34:32.061Z,1.28
2022-12-19T10:35:32.039Z,1.30
2022-12-19T10:37:11.947Z,1.32
2022-12-19T10:37:42.366Z,1.33
2022-12-19T10:38:32.996Z,1.34
2022-12-19T10:39:31.997Z,1.36
2022-12-19T10:40:32.039Z,1.37
2022-12-19T10:41:32.183Z,1.38
2022-12-19T10:42:32.002Z,1.39
2022-12-19T10:43:35.669Z,1.40
2022-12-19T10:44:32.914Z,1.41
2022-12-19T10:45:31.926Z,1.42
2022-12-19T10:46:32.007Z,1.43
2022-12-19T10:47:31.909Z,1.44
2022-12-19T10:48:31.909Z,1.45
2022-12-19T10:49:32.000Z,1.46
2022-12-19T10:50:31.913Z,1.47
2022-12-19T10:51:31.879Z,1.48
2022-12-19T10:52:31.835Z,1.49
2022-12-19T10:53:31.834Z,1.50
2022-12-19T10:54:33.757Z,1.51
2022-12-19T10:55:31.825Z,1.53
2022-12-19T10:56:37.146Z,1.54
2022-12-19T10:57:32.884Z,1.55
2022-12-19T10:58:31.804Z,1.57
2022-12-19T10:59:31.799Z,1.58
2022-12-19T11:00:33.049Z,1.60
2022-12-19T11:01:31.894Z,1.61
2022-12-19T11:02:31.839Z,1.61
2022-12-19T11:03:31.825Z,1.62
2022-12-19T11:04:32.722Z,1.63
2022-12-19T11:05:31.750Z,1.63
2022-12-19T11:06:31.687Z,1.64
2022-12-19T11:07:31.777Z,1.65
2022-12-19T11:08:31.786Z,1.66
2022-12-19T11:09:31.686Z,1.67
2022-12-19T11:12:36.469Z,1.68
2022-12-19T11:14:32.068Z,1.68
2022-12-19T11:16:38.279Z,1.69
2022-12-19T11:18:13.476Z,1.70
2022-12-19T11:18:41.567Z,1.70
2022-12-19T11:19:23.334Z,1.71
2022-12-19T11:21:17.100Z,1.72
2022-12-19T11:23:54.215Z,1.73
2022-12-19T11:29:17.973Z,1.74
2022-12-19T11:29:19.313Z,1.74
2022-12-19T11:29:37.894Z,1.77
2022-12-19T11:29:45.591Z,1.76
2022-12-19T11:30:36.476Z,1.83
2022-12-19T11:30:37.378Z,1.86
2022-12-19T11:30:42.986Z,1.78
2022-12-19T11:30:44.320Z,1.84
2022-12-19T11:30:44.320Z,1.80
2022-12-19T11:30:47.827Z,1.81
2022-12-19T11:30:48.003Z,1.87
2022-12-19T11:31:46.600Z,1.89
2022-12-19T11:32:40.584Z,1.94
2022-12-19T11:33:32.499Z,1.96
2022-12-19T11:34:31.384Z,1.98
2022-12-19T11:35:36.746Z,2.00
2022-12-19T11:36:32.477Z,2.02
2022-12-19T11:37:31.399Z,2.03
2022-12-19T11:38:31.361Z,2.05
2022-12-19T11:39:31.337Z,2.06
2022-12-19T11:40:31.312Z,2.07
2022-12-19T11:41:31.300Z,2.08
2022-12-19T11:42:31.306Z,2.08
2022-12-19T11:43:47.176Z,2.09
2022-12-19T11:44:32.308Z,2.10
2022-12-19T11:45:31.271Z,2.11
2022-12-19T11:46:31.267Z,2.12
2022-12-19T11:47:31.237Z,2.13
2022-12-19T11:48:31.236Z,2.15
2022-12-19T11:49:31.290Z,2.16
2022-12-19T11:50:31.325Z,2.16
2022-12-19T11:51:31.255Z,2.17
2022-12-19T11:53:32.234Z,2.18
2022-12-19T11:54:31.277Z,2.19
2022-12-19T11:55:31.162Z,2.19
2022-12-19T11:56:31.148Z,2.20
2022-12-19T11:57:31.167Z,2.20
2022-12-19T11:58:31.108Z,2.21
2022-12-19T11:59:31.106Z,2.23
2022-12-19T12:00:31.115Z,2.24
2022-12-19T12:01:31.109Z,2.25
2022-12-19T12:02:31.119Z,2.26
2022-12-19T12:03:31.176Z,2.27
2022-12-19T12:04:31.195Z,2.27
2022-12-19T12:05:31.095Z,2.28
2022-12-19T12:06:31.726Z,2.28
2022-12-19T12:08:25.497Z,2.28
2022-12-19T12:09:47.682Z,2.29
2022-12-19T12:13:22.298Z,2.29
2022-12-19T12:13:59.363Z,2.30
2022-12-19T12:19:33.813Z,2.31
2022-12-19T12:19:53.715Z,2.30
2022-12-19T12:20:43.331Z,2.31
2022-12-19T12:21:14.286Z,2.31
2022-12-19T12:28:51.528Z,2.31
2022-12-19T12:29:34.497Z,2.31
2022-12-19T12:31:05.471Z,2.32
2022-12-19T12:31:07.462Z,2.34
2022-12-19T12:31:08.449Z,2.32
2022-12-19T12:31:11.913Z,2.34
2022-12-19T12:31:20.597Z,2.32
2022-12-19T12:31:21.234Z,2.33
2022-12-19T12:31:21.672Z,2.33
2022-12-19T12:31:46.050Z,2.37
2022-12-19T12:31:49.898Z,2.38
2022-12-19T12:31:52.578Z,2.35
2022-12-19T12:31:53.069Z,2.37
2022-12-19T12:32:03.188Z,2.36
2022-12-19T12:32:04.207Z,2.36
2022-12-19T12:32:04.348Z,2.38
2022-12-19T12:35:43.569Z,2.41
2022-12-19T12:35:45.387Z,2.43
2022-12-19T12:35:52.125Z,2.40
2022-12-19T12:35:52.361Z,2.39
2022-12-19T12:38:16.669Z,2.51
2022-12-19T12:38:32.546Z,2.53
2022-12-19T12:39:33.709Z,2.55
2022-12-19T12:40:30.724Z,2.58
2022-12-19T12:41:30.688Z,2.60
2022-12-19T12:42:30.709Z,2.62
2022-12-19T12:43:30.629Z,2.63
2022-12-19T12:44:33.428Z,2.64
2022-12-19T12:45:30.651Z,2.65
2022-12-19T12:46:30.625Z,2.67
2022-12-19T12:47:30.620Z,2.68
2022-12-19T12:48:30.594Z,2.69
2022-12-19T12:49:30.580Z,2.70
2022-12-19T12:50:30.736Z,2.71
2022-12-19T12:51:31.610Z,2.72
2022-12-19T12:52:30.558Z,2.72
2022-12-19T12:53:30.548Z,2.73
2022-12-19T12:54:30.553Z,2.73
2022-12-19T12:55:30.654Z,2.74
2022-12-19T12:56:30.507Z,2.74
2022-12-19T12:57:30.520Z,2.75
2022-12-19T12:58:30.479Z,2.75
2022-12-19T12:59:30.457Z,2.76
2022-12-19T13:00:30.492Z,2.77
2022-12-19T13:01:30.594Z,2.78
2022-12-19T13:02:30.527Z,2.78
2022-12-19T13:03:30.474Z,2.79
2022-12-19T13:04:30.407Z,2.81
2022-12-19T13:05:30.402Z,2.82
2022-12-19T13:06:30.390Z,2.83
2022-12-19T13:07:30.386Z,2.84
2022-12-19T13:08:30.378Z,2.84
2022-12-19T13:09:30.432Z,2.84
2022-12-19T13:10:30.410Z,2.85
2022-12-19T13:11:30.320Z,2.85
2022-12-19T13:12:30.385Z,2.85
2022-12-19T13:13:30.428Z,2.86